CYUL/YUL METAR and TAF weather

Enter ICAO airport designator
Station Type Date Time Source
CYUL METAR 2018/12/10 20:00 UTC NOAA

CYUL 102000Z 28007KT 15SM FEW032 FEW250 M07/M14 A3023 RMK SC2CI1 CI TR SLP239


Station Type Date Time Source
CYUL Decoded METAR 2018/12/10 20:00 UTC NOAA

Montreal / Pierre Elliot Trudeau International Airport, Que, Canada (CYUL) 45-28N 073-45W 36M
Dec 10, 2018 - 03:00 PM EST / 2018.12.10 2000 UTC
Wind: from the W (280 degrees) at 8 MPH (7 KT):0
Visibility: 15 mile(s):0
Sky conditions: mostly clear
Temperature: 19 F (-7 C)
Windchill: 8 F (-13 C):1
Dew Point: 6 F (-14 C)
Relative Humidity: 57%
Pressure (altimeter): 30.23 in. Hg (1023 hPa)
ob: CYUL 102000Z 28007KT 15SM FEW032 FEW250 M07/M14 A3023 RMK SC2CI1 CI TR SLP239
cycle: 20

Station Type Date Time Source
CYUL TAF 2018/12/10 18:42 UTC NOAA

TAF CYUL 101738Z 1018/1118 VRB03KT P6SM BKN030
TEMPO 1018/1021 SCT030
FM102100 28006KT P6SM FEW030
BECMG 1100/1102 VRB03KT
FM111000 VRB03KT P6SM BKN030
FM111500 06007KT P6SM -SN OVC030
RMK NXT FCST BY 102100Z


Example: see airport list